createdAt,value
2018-02-16T00:01:18.875Z,14.80
2018-02-16T00:03:47.423Z,14.80
2018-02-16T00:06:15.197Z,14.80
2018-02-16T00:08:42.964Z,14.80
2018-02-16T00:11:10.702Z,14.80
2018-02-16T00:13:38.515Z,14.80
2018-02-16T00:16:06.250Z,14.70
2018-02-16T00:18:33.974Z,14.70
2018-02-16T00:21:01.745Z,14.70
2018-02-16T00:23:29.513Z,14.60
2018-02-16T00:25:57.309Z,14.70
2018-02-16T00:28:25.035Z,14.70
2018-02-16T00:30:52.816Z,14.70
2018-02-16T00:33:20.599Z,14.70
2018-02-16T00:35:48.334Z,14.60
2018-02-16T00:38:16.046Z,14.60
2018-02-16T00:40:43.763Z,14.60
2018-02-16T00:43:11.513Z,14.60
2018-02-16T00:45:40.019Z,14.40
2018-02-16T00:48:07.799Z,14.40
2018-02-16T00:50:35.579Z,14.40
2018-02-16T00:53:03.371Z,14.50
2018-02-16T00:55:31.164Z,14.50
2018-02-16T00:57:58.951Z,14.50
2018-02-16T01:00:26.662Z,14.40
2018-02-16T01:02:55.195Z,14.40
2018-02-16T01:05:22.923Z,14.40
2018-02-16T01:07:50.735Z,14.30
2018-02-16T01:10:18.451Z,14.20
2018-02-16T01:12:46.191Z,14.20
2018-02-16T01:15:13.994Z,14.20
2018-02-16T01:17:41.788Z,14.10
2018-02-16T01:20:10.286Z,14.10
2018-02-16T01:22:38.060Z,14.00
2018-02-16T01:25:05.817Z,14.10
2018-02-16T01:27:33.630Z,14.00
2018-02-16T01:30:01.406Z,14.00
2018-02-16T01:32:29.140Z,14.00
2018-02-16T01:34:56.887Z,14.00
2018-02-16T01:37:24.602Z,13.90
2018-02-16T01:39:52.383Z,13.80
2018-02-16T01:42:20.164Z,13.80
2018-02-16T01:44:47.903Z,13.80
2018-02-16T01:47:15.733Z,13.80
2018-02-16T01:50:07.137Z,13.80
2018-02-16T01:52:34.882Z,13.80
2018-02-16T01:55:02.664Z,13.80
2018-02-16T01:57:30.435Z,13.70
2018-02-16T01:59:58.183Z,13.70
2018-02-16T02:02:25.967Z,13.70
2018-02-16T02:04:53.752Z,13.70
2018-02-16T02:07:21.531Z,13.70
2018-02-16T02:09:49.295Z,13.70
2018-02-16T02:12:17.069Z,13.60
2018-02-16T02:14:44.839Z,13.60
2018-02-16T02:17:12.622Z,13.60
2018-02-16T02:19:40.408Z,13.60
2018-02-16T02:22:08.136Z,13.50
2018-02-16T02:24:35.891Z,13.50
2018-02-16T02:27:03.666Z,13.50
2018-02-16T02:29:31.456Z,13.60
2018-02-16T02:31:59.242Z,13.50
2018-02-16T02:34:26.985Z,13.50
2018-02-16T02:36:54.782Z,13.50
2018-02-16T02:39:22.514Z,13.40
2018-02-16T02:41:50.245Z,13.40
2018-02-16T02:44:18.034Z,13.40
2018-02-16T02:46:46.575Z,13.30
2018-02-16T02:49:15.060Z,13.30
2018-02-16T02:51:42.839Z,13.20
2018-02-16T02:54:10.569Z,13.20
2018-02-16T02:56:38.277Z,13.20
2018-02-16T02:59:06.048Z,13.20
2018-02-16T03:01:33.757Z,13.20
2018-02-16T03:04:01.475Z,13.20
2018-02-16T03:06:33.112Z,13.10
2018-02-16T03:09:00.836Z,13.10
2018-02-16T03:11:28.583Z,13.10
2018-02-16T03:13:56.306Z,13.10
2018-02-16T03:16:24.865Z,13.10
2018-02-16T03:18:52.666Z,13.00
2018-02-16T03:21:20.451Z,13.00
2018-02-16T03:23:48.184Z,13.00
2018-02-16T03:26:15.913Z,12.90
2018-02-16T03:28:43.644Z,12.90
2018-02-16T03:31:11.751Z,12.90
2018-02-16T03:33:39.526Z,12.90
2018-02-16T03:36:07.321Z,12.90
2018-02-16T03:38:35.837Z,12.80
2018-02-16T03:41:03.620Z,12.80
2018-02-16T03:43:31.329Z,12.80
2018-02-16T03:45:59.122Z,12.90
2018-02-16T03:48:26.860Z,12.80
2018-02-16T03:50:55.814Z,12.80
2018-02-16T03:53:23.553Z,12.80
2018-02-16T03:55:51.294Z,12.80
2018-02-16T03:58:19.848Z,12.70
2018-02-16T04:00:47.637Z,12.70
2018-02-16T04:03:15.414Z,12.70
2018-02-16T04:05:43.224Z,12.70
2018-02-16T04:08:11.006Z,12.70
2018-02-16T04:10:38.731Z,12.60
2018-02-16T04:13:06.504Z,12.60
2018-02-16T04:15:34.301Z,12.60
2018-02-16T04:18:02.088Z,12.50
2018-02-16T04:20:29.873Z,12.50
2018-02-16T04:22:57.606Z,12.50
2018-02-16T04:25:25.329Z,12.50
2018-02-16T04:27:53.114Z,12.50
2018-02-16T04:30:20.831Z,12.40
2018-02-16T04:32:48.639Z,12.40
2018-02-16T04:35:16.354Z,12.30
2018-02-16T04:37:44.131Z,12.30
2018-02-16T04:40:11.861Z,12.20
2018-02-16T04:42:39.648Z,11.90
2018-02-16T04:45:07.427Z,12.20
2018-02-16T04:47:35.174Z,12.30
2018-02-16T04:50:02.950Z,12.20
2018-02-16T04:52:30.695Z,12.10
2018-02-16T04:54:58.419Z,12.10
2018-02-16T04:57:26.948Z,12.10
2018-02-16T04:59:54.756Z,12.00
2018-02-16T05:02:22.479Z,12.10
2018-02-16T05:04:50.295Z,12.10
2018-02-16T05:07:18.105Z,12.10
2018-02-16T05:09:45.888Z,12.10
2018-02-16T05:12:13.628Z,12.10
2018-02-16T05:14:41.391Z,12.10
2018-02-16T05:17:09.194Z,12.20
2018-02-16T05:19:37.008Z,12.30
2018-02-16T05:22:05.560Z,12.40
2018-02-16T05:24:33.346Z,12.30
2018-02-16T05:27:01.079Z,12.40
2018-02-16T05:29:28.827Z,12.50
2018-02-16T05:31:56.602Z,12.50
2018-02-16T05:34:24.595Z,12.60
2018-02-16T05:36:54.555Z,12.60
2018-02-16T05:41:58.188Z,12.70
2018-02-16T05:44:39.404Z,12.70
2018-02-16T05:47:08.113Z,12.80
2018-02-16T05:49:35.857Z,12.90
2018-02-16T05:52:03.671Z,12.90
2018-02-16T05:54:31.410Z,12.90
2018-02-16T05:56:59.137Z,12.90
2018-02-16T05:59:26.920Z,12.90
2018-02-16T06:01:54.675Z,12.90
2018-02-16T06:04:22.464Z,13.00
2018-02-16T06:06:50.214Z,13.00
2018-02-16T06:09:27.002Z,13.00
2018-02-16T06:11:54.739Z,13.00
2018-02-16T06:14:22.578Z,13.10
2018-02-16T06:16:50.353Z,13.00
2018-02-16T06:19:18.991Z,13.10
2018-02-16T06:21:46.782Z,13.10
2018-02-16T06:24:14.561Z,13.20
2018-02-16T06:26:42.363Z,13.20
2018-02-16T06:29:10.150Z,13.30
2018-02-16T06:31:37.935Z,13.40
2018-02-16T06:34:05.673Z,13.50
2018-02-16T06:36:33.417Z,13.50
2018-02-16T06:39:03.337Z,13.60
2018-02-16T06:41:31.187Z,13.50
2018-02-16T06:44:09.275Z,13.60
2018-02-16T06:46:37.905Z,13.70
2018-02-16T06:49:06.875Z,13.70
2018-02-16T06:51:34.668Z,14.00
2018-02-16T06:54:02.544Z,14.10
2018-02-16T06:56:30.257Z,14.10
2018-02-16T06:58:58.170Z,14.20
2018-02-16T07:01:26.161Z,14.60
2018-02-16T07:03:53.926Z,14.60
2018-02-16T07:06:21.732Z,14.50
2018-02-16T07:08:49.598Z,14.40
2018-02-16T07:11:17.525Z,14.40
2018-02-16T07:13:45.421Z,14.40
2018-02-16T07:16:13.220Z,14.50
2018-02-16T07:18:41.795Z,14.30
2018-02-16T07:21:09.600Z,14.30
2018-02-16T07:23:37.496Z,14.50
2018-02-16T07:26:05.297Z,14.60
2018-02-16T07:28:33.054Z,14.70
2018-02-16T07:31:00.992Z,14.70
2018-02-16T07:33:28.760Z,14.70
2018-02-16T07:35:56.544Z,14.70
2018-02-16T07:38:24.370Z,14.60
2018-02-16T07:40:52.919Z,14.60
2018-02-16T07:43:20.664Z,14.50
2018-02-16T07:45:48.694Z,14.70
2018-02-16T07:48:16.576Z,14.80
2018-02-16T07:50:44.426Z,14.90
2018-02-16T07:53:12.194Z,15.00
2018-02-16T07:55:40.775Z,15.10
2018-02-16T07:58:09.366Z,15.10
2018-02-16T08:00:46.658Z,15.10
2018-02-16T08:03:21.309Z,15.20
2018-02-16T08:08:33.219Z,15.40
2018-02-16T08:11:00.966Z,15.40
2018-02-16T08:13:28.724Z,15.50
2018-02-16T08:15:57.357Z,15.60
2018-02-16T08:18:25.162Z,15.50
2018-02-16T08:20:52.893Z,15.70
2018-02-16T08:23:20.728Z,15.70
2018-02-16T08:25:48.466Z,15.70
2018-02-16T08:28:16.261Z,15.80
2018-02-16T08:30:44.081Z,15.90
2018-02-16T08:33:11.905Z,15.90
2018-02-16T08:35:39.691Z,15.90
2018-02-16T08:38:07.503Z,16.00
2018-02-16T08:40:35.257Z,16.00
2018-02-16T08:43:03.041Z,16.00
2018-02-16T08:45:30.832Z,16.00
2018-02-16T08:47:59.394Z,15.90
2018-02-16T08:50:27.193Z,15.80
2018-02-16T08:52:54.934Z,15.90
2018-02-16T08:55:22.679Z,16.10
2018-02-16T08:57:50.500Z,16.10
2018-02-16T09:00:18.265Z,16.10
2018-02-16T09:02:46.028Z,16.10
2018-02-16T09:05:13.825Z,16.10
2018-02-16T09:07:41.632Z,16.10
2018-02-16T09:10:09.463Z,16.20
2018-02-16T09:12:37.196Z,16.10
2018-02-16T09:15:05.732Z,16.20
2018-02-16T09:17:33.525Z,16.10
2018-02-16T09:20:01.268Z,16.20
2018-02-16T09:22:29.070Z,16.10
2018-02-16T09:24:56.870Z,16.10
2018-02-16T09:27:24.670Z,16.10
2018-02-16T09:29:52.478Z,16.10
2018-02-16T09:32:21.017Z,16.00
2018-02-16T09:34:48.795Z,16.00
2018-02-16T09:37:18.849Z,16.00
2018-02-16T09:39:48.182Z,16.00
2018-02-16T09:42:15.949Z,16.00
2018-02-16T09:44:43.768Z,16.10
2018-02-16T09:47:11.560Z,16.20
2018-02-16T09:49:39.367Z,16.20
2018-02-16T09:52:07.143Z,16.20
2018-02-16T09:54:35.716Z,16.20
2018-02-16T09:57:03.458Z,16.20
2018-02-16T09:59:31.216Z,16.20
2018-02-16T10:01:59.048Z,16.20
2018-02-16T10:04:26.853Z,16.10
2018-02-16T10:06:54.848Z,16.10
2018-02-16T10:09:22.648Z,16.10
2018-02-16T10:11:50.444Z,16.10
2018-02-16T10:14:18.284Z,16.00
2018-02-16T10:16:46.022Z,16.00
2018-02-16T10:19:13.770Z,16.00
2018-02-16T10:21:41.501Z,16.00
2018-02-16T10:24:09.303Z,16.00
2018-02-16T10:26:37.081Z,16.00
2018-02-16T10:29:04.873Z,16.00
2018-02-16T10:31:32.630Z,16.00
2018-02-16T10:34:00.357Z,16.00
2018-02-16T10:36:28.168Z,16.00
2018-02-16T10:38:55.955Z,16.00
2018-02-16T10:41:23.743Z,16.10
2018-02-16T10:43:51.472Z,16.10
2018-02-16T10:46:19.241Z,16.20
2018-02-16T10:48:47.028Z,16.20
2018-02-16T10:51:14.769Z,16.30
2018-02-16T10:53:42.529Z,16.30
2018-02-16T10:56:10.325Z,16.30
2018-02-16T10:58:38.047Z,16.40
2018-02-16T11:01:11.431Z,16.50
2018-02-16T11:03:39.215Z,16.60
2018-02-16T11:06:12.792Z,16.70
2018-02-16T11:22:04.363Z,17.80
2018-02-16T11:24:32.124Z,17.20
2018-02-16T11:26:59.973Z,17.10
2018-02-16T11:29:27.855Z,17.10
2018-02-16T11:31:55.638Z,17.10
2018-02-16T11:34:23.404Z,17.20
2018-02-16T11:36:51.242Z,17.20
2018-02-16T11:39:19.014Z,17.30
2018-02-16T11:41:46.816Z,17.30
2018-02-16T11:44:14.595Z,17.40
2018-02-16T11:46:42.410Z,17.50
2018-02-16T11:49:10.240Z,17.50
2018-02-16T11:51:37.997Z,17.50
2018-02-16T11:54:05.835Z,17.50
2018-02-16T11:56:33.649Z,17.60
2018-02-16T11:59:02.254Z,17.80
2018-02-16T12:01:30.065Z,17.70
2018-02-16T12:03:57.896Z,17.90
2018-02-16T12:06:25.721Z,18.00
2018-02-16T12:08:53.473Z,17.90
2018-02-16T12:11:21.203Z,18.00
2018-02-16T12:13:49.076Z,18.10
2018-02-16T12:16:16.892Z,18.20
2018-02-16T12:18:44.683Z,18.20
2018-02-16T12:21:12.513Z,18.30
2018-02-16T12:23:40.288Z,18.50
2018-02-16T12:26:08.056Z,18.60
2018-02-16T12:28:35.897Z,18.70
2018-02-16T12:31:03.694Z,18.70
2018-02-16T12:33:31.521Z,18.80
2018-02-16T12:35:59.338Z,18.90
2018-02-16T12:38:27.188Z,18.80
2018-02-16T12:40:55.013Z,18.80
2018-02-16T12:43:22.862Z,18.90
2018-02-16T12:45:50.694Z,18.90
2018-02-16T12:48:18.574Z,18.90
2018-02-16T12:50:47.126Z,19.00
2018-02-16T12:53:14.921Z,19.00
2018-02-16T12:55:42.697Z,19.00
2018-02-16T12:58:10.482Z,19.00
2018-02-16T13:00:38.245Z,19.00
2018-02-16T13:03:06.108Z,19.10
2018-02-16T13:05:34.708Z,19.20
2018-02-16T13:08:02.517Z,19.20
2018-02-16T13:10:30.264Z,19.30
2018-02-16T13:12:58.120Z,19.40
2018-02-16T13:15:25.952Z,19.40
2018-02-16T13:17:53.716Z,19.50
2018-02-16T13:20:21.457Z,19.50
2018-02-16T13:22:49.207Z,19.50
2018-02-16T13:25:17.023Z,19.70
2018-02-16T13:27:44.782Z,19.90
2018-02-16T13:30:19.218Z,20.10
2018-02-16T13:32:47.748Z,20.20
2018-02-16T13:35:15.553Z,20.10
2018-02-16T13:37:43.392Z,20.20
2018-02-16T13:40:11.248Z,20.20
2018-02-16T13:42:39.028Z,20.20
2018-02-16T13:45:06.827Z,20.20
2018-02-16T13:47:34.699Z,20.20
2018-02-16T13:50:02.599Z,20.30
2018-02-16T13:52:30.359Z,20.60
2018-02-16T13:54:59.716Z,20.30
2018-02-16T13:57:27.582Z,20.30
2018-02-16T13:59:55.425Z,20.30
2018-02-16T14:02:23.276Z,20.20
2018-02-16T14:04:51.076Z,20.20
2018-02-16T14:07:18.829Z,20.20
2018-02-16T14:09:46.624Z,20.30
2018-02-16T14:12:15.191Z,20.30
2018-02-16T14:14:44.911Z,20.20
2018-02-16T14:17:12.672Z,20.20
2018-02-16T14:19:40.455Z,20.20
2018-02-16T14:22:08.265Z,20.20
2018-02-16T14:24:36.009Z,20.30
2018-02-16T14:27:03.727Z,20.30
2018-02-16T14:29:31.501Z,20.40
2018-02-16T14:31:59.236Z,20.40
2018-02-16T14:34:27.073Z,20.50
2018-02-16T14:36:54.828Z,20.50
2018-02-16T14:39:22.606Z,20.60
2018-02-16T14:41:50.373Z,20.70
2018-02-16T14:44:18.147Z,20.70
2018-02-16T14:46:45.931Z,20.70
2018-02-16T14:49:13.740Z,20.80
2018-02-16T14:51:41.604Z,21.10
2018-02-16T14:54:09.344Z,21.00
2018-02-16T14:56:37.123Z,20.90
2018-02-16T14:59:04.875Z,21.00
2018-02-16T15:01:33.094Z,21.10
2018-02-16T15:04:00.888Z,21.10
2018-02-16T15:06:28.743Z,21.10
2018-02-16T15:08:56.508Z,21.30
2018-02-16T15:11:24.316Z,21.10
2018-02-16T15:13:52.822Z,20.90
2018-02-16T15:16:20.609Z,20.90
2018-02-16T15:18:48.326Z,20.80
2018-02-16T15:21:16.080Z,20.90
2018-02-16T15:23:43.818Z,21.00
2018-02-16T15:26:12.426Z,20.90
2018-02-16T15:28:40.164Z,21.10
2018-02-16T15:31:07.975Z,21.30
2018-02-16T15:33:36.508Z,21.10
2018-02-16T15:36:04.235Z,21.00
2018-02-16T15:38:31.972Z,20.90
2018-02-16T15:41:00.724Z,21.10
2018-02-16T15:43:28.532Z,21.10
2018-02-16T15:45:56.297Z,21.20
2018-02-16T15:48:24.166Z,21.20
2018-02-16T15:50:51.945Z,21.10
2018-02-16T15:53:19.770Z,21.00
2018-02-16T15:55:49.626Z,21.00
2018-02-16T15:58:17.497Z,20.80
2018-02-16T16:00:45.811Z,20.70
2018-02-16T16:03:13.631Z,20.70
2018-02-16T16:05:41.445Z,20.60
2018-02-16T16:08:09.205Z,20.60
2018-02-16T16:10:37.092Z,20.40
2018-02-16T16:13:04.968Z,20.30
2018-02-16T16:15:32.761Z,20.30
2018-02-16T16:18:00.499Z,20.40
2018-02-16T16:20:28.280Z,20.40
2018-02-16T16:22:56.065Z,20.50
2018-02-16T16:25:23.962Z,20.30
2018-02-16T16:27:55.406Z,20.10
2018-02-16T16:30:23.221Z,20.10
2018-02-16T16:32:51.083Z,20.10
2018-02-16T16:35:20.229Z,20.00
2018-02-16T16:37:48.154Z,19.90
2018-02-16T16:40:16.120Z,19.80
2018-02-16T16:42:43.892Z,19.80
2018-02-16T16:45:11.699Z,19.70
2018-02-16T16:47:39.725Z,19.60
2018-02-16T16:50:08.202Z,19.60
2018-02-16T16:52:36.034Z,19.60
2018-02-16T16:55:03.828Z,19.50
2018-02-16T16:57:31.661Z,19.50
2018-02-16T17:00:07.422Z,19.40
2018-02-16T17:02:35.278Z,19.30
2018-02-16T17:05:03.092Z,19.20
2018-02-16T17:07:31.700Z,19.10
2018-02-16T17:09:59.508Z,19.10
2018-02-16T17:12:27.252Z,19.10
2018-02-16T17:14:55.060Z,19.10
2018-02-16T17:17:23.640Z,19.10
2018-02-16T17:19:51.393Z,19.10
2018-02-16T17:22:19.244Z,19.10
2018-02-16T17:24:46.984Z,19.10
2018-02-16T17:27:14.825Z,19.10
2018-02-16T17:29:43.433Z,19.00
2018-02-16T17:32:11.258Z,19.00
2018-02-16T17:34:39.075Z,19.00
2018-02-16T17:37:06.934Z,19.00
2018-02-16T17:39:34.742Z,19.00
2018-02-16T17:42:02.565Z,19.00
2018-02-16T17:44:30.441Z,19.00
2018-02-16T17:46:58.269Z,19.10
2018-02-16T17:49:26.173Z,19.10
2018-02-16T17:51:55.350Z,19.10
2018-02-16T17:54:30.733Z,19.00
2018-02-16T17:56:59.552Z,19.10
2018-02-16T17:59:31.253Z,19.10
2018-02-16T18:01:59.726Z,19.00
2018-02-16T18:49:35.101Z,19.10
2018-02-16T18:52:05.122Z,18.90
2018-02-16T18:54:34.104Z,18.70
2018-02-16T18:57:04.865Z,18.70
2018-02-16T18:59:32.605Z,18.70
2018-02-16T19:02:02.962Z,18.50
2018-02-16T19:04:30.866Z,18.50
2018-02-16T19:06:59.024Z,18.50
2018-02-16T19:09:26.845Z,18.50
2018-02-16T19:11:54.662Z,18.50
2018-02-16T19:14:22.909Z,18.50
2018-02-16T19:16:51.030Z,18.50
2018-02-16T19:19:19.205Z,18.50
2018-02-16T19:21:47.400Z,18.50
2018-02-16T19:24:15.154Z,18.50
2018-02-16T19:26:44.610Z,18.50
2018-02-16T19:29:13.658Z,18.50
2018-02-16T19:31:43.101Z,18.40
2018-02-16T19:34:12.490Z,18.40
2018-02-16T19:36:43.082Z,18.30
2018-02-16T19:39:11.251Z,18.30
2018-02-16T19:41:40.178Z,18.30
2018-02-16T19:44:09.084Z,18.30
2018-02-16T19:46:40.734Z,18.30
2018-02-16T19:49:11.246Z,18.30
2018-02-16T19:51:45.547Z,18.30
2018-02-16T19:54:13.931Z,18.40
2018-02-16T20:01:40.861Z,18.40
2018-02-16T20:04:09.581Z,18.40
2018-02-16T20:06:38.996Z,18.30
2018-02-16T20:09:10.070Z,18.20
2018-02-16T20:11:38.718Z,18.20
2018-02-16T20:14:08.102Z,18.30
2018-02-16T20:16:36.004Z,18.30
2018-02-16T20:19:05.354Z,18.30
2018-02-16T20:21:34.589Z,18.40
2018-02-16T20:24:03.626Z,18.30
2018-02-16T20:26:35.773Z,18.20
2018-02-16T20:29:06.903Z,18.20
2018-02-16T20:34:07.189Z,18.30
2018-02-16T20:36:36.935Z,18.20
2018-02-16T20:39:05.810Z,18.20
2018-02-16T20:46:33.598Z,18.00
2018-02-16T20:51:31.533Z,18.00
2018-02-16T20:54:03.815Z,18.00
2018-02-16T20:56:33.358Z,18.00
2018-02-16T20:59:03.737Z,17.90
2018-02-16T21:01:32.041Z,18.00
2018-02-16T21:04:01.609Z,17.80
2018-02-16T21:06:30.353Z,17.90
2018-02-16T21:08:59.758Z,17.90
2018-02-16T21:14:00.504Z,17.70
2018-02-16T21:16:30.644Z,17.60
2018-02-16T21:26:29.384Z,17.60
2018-02-16T21:28:58.371Z,17.80
2018-02-16T21:31:27.105Z,17.80
2018-02-16T21:33:55.735Z,17.90
2018-02-16T21:36:24.467Z,17.80
2018-02-16T21:38:52.731Z,17.80
2018-02-16T21:41:21.721Z,17.60
2018-02-16T21:43:50.768Z,17.70
2018-02-16T21:46:19.354Z,17.70
2018-02-16T21:48:47.180Z,17.60
2018-02-16T21:53:45.242Z,17.80
2018-02-16T21:56:13.927Z,17.70
2018-02-16T21:58:43.200Z,17.70
2018-02-16T22:01:11.782Z,17.70
2018-02-16T22:03:40.377Z,17.70
2018-02-16T22:06:08.987Z,17.60
2018-02-16T22:08:37.110Z,17.50
2018-02-16T22:11:05.334Z,17.50
2018-02-16T22:13:34.675Z,17.50
2018-02-16T22:16:03.603Z,17.50
2018-02-16T22:18:31.902Z,16.20
2018-02-16T22:21:00.493Z,17.00
2018-02-16T22:23:28.698Z,17.20
2018-02-16T22:25:57.310Z,17.30
2018-02-16T22:28:25.938Z,17.30
2018-02-16T22:30:55.576Z,17.40
2018-02-16T22:33:24.173Z,17.30
2018-02-16T22:35:52.725Z,17.30
2018-02-16T22:38:21.993Z,17.20
2018-02-16T22:40:50.618Z,17.20
2018-02-16T22:43:19.980Z,17.10
2018-02-16T22:45:48.215Z,17.10
2018-02-16T22:48:17.548Z,17.00
2018-02-16T22:50:45.374Z,17.00
2018-02-16T22:53:13.934Z,17.00
2018-02-16T22:55:42.942Z,16.90
2018-02-16T22:58:13.126Z,16.90
2018-02-16T23:03:12.762Z,16.90
2018-02-16T23:05:41.730Z,16.90
2018-02-16T23:08:11.972Z,16.80
2018-02-16T23:10:40.142Z,16.80
2018-02-16T23:18:06.907Z,16.70
2018-02-16T23:20:35.496Z,16.60
2018-02-16T23:23:05.032Z,16.70
2018-02-16T23:25:33.625Z,16.70
2018-02-16T23:28:01.438Z,16.70
2018-02-16T23:30:30.718Z,16.70
2018-02-16T23:35:28.398Z,16.70
2018-02-16T23:37:56.664Z,16.60
2018-02-16T23:40:24.469Z,16.60
2018-02-16T23:42:52.966Z,16.50
2018-02-16T23:45:21.489Z,16.50
2018-02-16T23:47:50.111Z,16.50
2018-02-16T23:50:19.569Z,16.50
2018-02-16T23:52:48.156Z,16.50
2018-02-16T23:55:17.115Z,16.50
2018-02-16T23:57:45.334Z,16.50
